TimeCDT,TemperatureF,Dew PointF,Humidity,Sea Level PressureIn,VisibilityMPH,Wind Direction,Wind SpeedMPH,Gust SpeedMPH,PrecipitationIn,Events,Conditions,WindDirDegrees,DateUTC
12:14 AM,8.6,1.4,73,30.13,10.0,NW,5.8,-,N/A,,Clear,310,2013-03-21 05:14:00
12:33 AM,6.8,-0.4,72,30.13,10.0,NW,4.6,-,N/A,,Clear,320,2013-03-21 05:33:00
1:14 AM,3.2,-2.2,78,30.13,10.0,Calm,Calm,-,N/A,,Clear,0,2013-03-21 06:14:00
1:34 AM,3.2,-0.4,85,30.12,10.0,Calm,Calm,-,N/A,,Clear,0,2013-03-21 06:34:00
1:54 AM,-4.0,-7.6,85,30.13,10.0,Calm,Calm,-,N/A,,Clear,0,2013-03-21 06:54:00
2:14 AM,-2.2,-7.6,78,30.13,10.0,Calm,Calm,-,N/A,,Clear,0,2013-03-21 07:14:00
2:33 AM,-5.8,-9.4,84,30.13,10.0,Calm,Calm,-,N/A,,Clear,0,2013-03-21 07:33:00
2:54 AM,-5.8,-9.4,84,30.13,10.0,Calm,Calm,-,N/A,,Clear,0,2013-03-21 07:54:00
3:14 AM,-5.8,-11.2,77,30.12,10.0,Calm,Calm,-,N/A,,Clear,0,2013-03-21 08:14:00
3:33 AM,-5.8,-9.4,84,30.12,10.0,Calm,Calm,-,N/A,,Clear,0,2013-03-21 08:33:00
3:54 AM,-5.8,-9.4,84,30.11,10.0,Calm,Calm,-,N/A,,Clear,0,2013-03-21 08:54:00
4:13 AM,-5.8,-11.2,77,30.11,10.0,Calm,Calm,-,N/A,,Clear,0,2013-03-21 09:13:00
4:34 AM,-9.4,-14.8,77,30.11,10.0,Calm,Calm,-,N/A,,Clear,0,2013-03-21 09:34:00
4:54 AM,-7.6,-13.0,77,30.11,10.0,Calm,Calm,-,N/A,,Clear,0,2013-03-21 09:54:00
5:14 AM,-9.4,-14.8,77,30.11,10.0,Calm,Calm,-,N/A,,Clear,0,2013-03-21 10:14:00
5:34 AM,-9.4,-14.8,77,30.12,10.0,Calm,Calm,-,N/A,,Clear,0,2013-03-21 10:34:00
5:54 AM,-9.4,-14.8,77,30.12,10.0,Calm,Calm,-,N/A,,Clear,0,2013-03-21 10:54:00
6:14 AM,-7.6,-13.0,77,30.12,10.0,Calm,Calm,-,N/A,,Clear,0,2013-03-21 11:14:00
6:33 AM,-9.4,-14.8,77,30.12,10.0,Calm,Calm,-,N/A,,Clear,0,2013-03-21 11:33:00
6:54 AM,-9.4,-14.8,77,30.12,10.0,Calm,Calm,-,N/A,,Clear,0,2013-03-21 11:54:00
7:14 AM,-11.2,-16.6,77,30.12,10.0,Calm,Calm,-,N/A,,Clear,0,2013-03-21 12:14:00
7:34 AM,-9.4,-14.8,77,30.12,10.0,Calm,Calm,-,N/A,,Clear,0,2013-03-21 12:34:00
7:54 AM,-9.4,-16.6,71,30.12,10.0,Calm,Calm,-,N/A,,Clear,0,2013-03-21 12:54:00
8:14 AM,-9.4,-16.6,71,30.12,7.0,Calm,Calm,-,N/A,,Clear,0,2013-03-21 13:14:00
8:34 AM,-7.6,-13.0,77,30.11,7.0,Calm,Calm,-,N/A,,Clear,0,2013-03-21 13:34:00
8:54 AM,-4.0,-9.4,78,30.12,10.0,Calm,Calm,-,N/A,,Clear,0,2013-03-21 13:54:00
9:14 AM,-5.8,-11.2,77,30.12,10.0,Calm,Calm,-,N/A,,Clear,0,2013-03-21 14:14:00
9:34 AM,-0.4,-5.8,78,30.12,10.0,Calm,Calm,-,N/A,,Clear,0,2013-03-21 14:34:00
9:54 AM,1.4,-4.0,78,30.12,10.0,Calm,Calm,-,N/A,,Clear,0,2013-03-21 14:54:00
10:14 AM,3.2,-2.2,78,30.12,10.0,Calm,Calm,-,N/A,,Clear,0,2013-03-21 15:14:00
10:34 AM,8.6,1.4,73,30.13,10.0,Calm,Calm,-,N/A,,Clear,0,2013-03-21 15:34:00
10:54 AM,6.8,1.4,79,30.13,10.0,Calm,Calm,-,N/A,,Clear,0,2013-03-21 15:54:00
11:14 AM,8.6,1.4,73,30.12,10.0,Calm,Calm,-,N/A,,Clear,0,2013-03-21 16:14:00
11:34 AM,10.4,3.2,73,30.13,10.0,Calm,Calm,-,N/A,,Clear,0,2013-03-21 16:34:00
11:54 AM,12.2,5.0,73,30.13,10.0,Calm,Calm,-,N/A,,Clear,0,2013-03-21 16:54:00
12:14 PM,15.8,6.8,68,30.12,10.0,ESE,3.5,-,N/A,,Clear,110,2013-03-21 17:14:00
12:34 PM,15.8,6.8,68,30.11,10.0,Calm,Calm,-,N/A,,Clear,0,2013-03-21 17:34:00
12:54 PM,17.6,8.6,68,30.11,10.0,Calm,Calm,-,N/A,,Clear,0,2013-03-21 17:54:00
1:14 PM,19.4,8.6,63,30.11,10.0,Calm,Calm,-,N/A,,Clear,0,2013-03-21 18:14:00
1:34 PM,17.6,8.6,68,30.11,10.0,Calm,Calm,-,N/A,,Clear,0,2013-03-21 18:34:00
1:54 PM,19.4,8.6,63,30.10,10.0,Calm,Calm,-,N/A,,Clear,0,2013-03-21 18:54:00
2:14 PM,21.2,10.4,63,30.10,10.0,Calm,Calm,-,N/A,,Clear,0,2013-03-21 19:14:00
2:33 PM,21.2,10.4,63,30.10,10.0,East,3.5,-,N/A,,Clear,90,2013-03-21 19:33:00
2:54 PM,19.4,10.4,68,30.09,10.0,East,5.8,-,N/A,,Clear,90,2013-03-21 19:54:00
3:14 PM,19.4,8.6,63,30.09,10.0,East,5.8,-,N/A,,Clear,100,2013-03-21 20:14:00
3:34 PM,19.4,8.6,63,30.09,10.0,East,4.6,-,N/A,,Clear,100,2013-03-21 20:34:00
3:54 PM,21.2,8.6,58,30.09,10.0,East,3.5,-,N/A,,Clear,90,2013-03-21 20:54:00
4:14 PM,21.2,8.6,58,30.09,10.0,Calm,Calm,-,N/A,,Clear,0,2013-03-21 21:14:00
4:34 PM,21.2,6.8,54,30.09,10.0,East,3.5,-,N/A,,Clear,100,2013-03-21 21:34:00
4:54 PM,21.2,6.8,54,30.09,10.0,East,3.5,-,N/A,,Clear,90,2013-03-21 21:54:00
5:14 PM,21.2,6.8,54,30.09,10.0,Calm,Calm,-,N/A,,Clear,0,2013-03-21 22:14:00
5:34 PM,21.2,6.8,54,30.09,10.0,Calm,Calm,-,N/A,,Clear,0,2013-03-21 22:34:00
5:54 PM,19.4,6.8,58,30.09,10.0,Calm,Calm,-,N/A,,Clear,0,2013-03-21 22:54:00
6:14 PM,19.4,6.8,58,30.09,10.0,Calm,Calm,-,N/A,,Clear,0,2013-03-21 23:14:00
6:34 PM,19.4,6.8,58,30.09,10.0,Calm,Calm,-,N/A,,Clear,0,2013-03-21 23:34:00
6:54 PM,19.4,6.8,58,30.09,10.0,Calm,Calm,-,N/A,,Clear,0,2013-03-21 23:54:00
7:14 PM,19.4,6.8,58,30.09,10.0,Calm,Calm,-,N/A,,Clear,0,2013-03-22 00:14:00
7:34 PM,17.6,5.0,58,30.09,10.0,Calm,Calm,-,N/A,,Clear,0,2013-03-22 00:34:00
7:54 PM,17.6,3.2,53,30.10,10.0,Calm,Calm,-,N/A,,Clear,0,2013-03-22 00:54:00
8:14 PM,14.0,3.2,62,30.10,10.0,Calm,Calm,-,N/A,,Clear,0,2013-03-22 01:14:00
8:34 PM,10.4,1.4,67,30.10,10.0,Calm,Calm,-,N/A,,Clear,0,2013-03-22 01:34:00
8:54 PM,10.4,1.4,67,30.10,10.0,Calm,Calm,-,N/A,,Clear,0,2013-03-22 01:54:00
9:14 PM,12.2,3.2,67,30.10,10.0,Calm,Calm,-,N/A,,Clear,0,2013-03-22 02:14:00
9:34 PM,8.6,1.4,73,30.10,10.0,Calm,Calm,-,N/A,,Clear,0,2013-03-22 02:34:00
9:54 PM,10.4,1.4,67,30.10,10.0,Calm,Calm,-,N/A,,Clear,0,2013-03-22 02:54:00
10:14 PM,6.8,-0.4,72,30.11,10.0,Calm,Calm,-,N/A,,Clear,0,2013-03-22 03:14:00
10:34 PM,6.8,-0.4,72,30.11,10.0,Calm,Calm,-,N/A,,Clear,0,2013-03-22 03:34:00
10:54 PM,5.0,-2.2,72,30.11,10.0,Calm,Calm,-,N/A,,Clear,0,2013-03-22 03:54:00
11:14 PM,5.0,-0.4,78,30.10,10.0,Calm,Calm,-,N/A,,Clear,0,2013-03-22 04:14:00
11:34 PM,5.0,-2.2,72,30.10,10.0,Calm,Calm,-,N/A,,Clear,0,2013-03-22 04:34:00
11:54 PM,3.2,-4.0,72,30.11,10.0,Calm,Calm,-,N/A,,Clear,0,2013-03-22 04:54:00